Time;durP1;ratioP1;P1;durP2;ratioP2;P2;SDS_P1;SDS_P2;PMS_P1;PMS_P2;Temp;Humidity;BMP_temperature;BMP_pressure;BME280_temperature;BME280_humidity;BME280_pressure;Samples;Min_cycle;Max_cycle;Signal;HPM_P1;HPM_P2
2023/06/14 00:00:36;;;;;;;22.70;7.25;;;;;;;20.32;100.00;101450.41;5072242;28;20382;-49
2023/06/14 00:03:03;;;;;;;14.75;6.70;;;;;;;20.27;100.00;101449.44;5068210;28;20040;-47
2023/06/14 00:05:29;;;;;;;17.45;6.97;;;;;;;20.23;100.00;101446.34;5072662;28;20029;-46
2023/06/14 00:07:55;;;;;;;16.90;7.10;;;;;;;20.22;100.00;101450.16;5079403;28;20036;-48
2023/06/14 00:10:20;;;;;;;17.70;6.82;;;;;;;20.19;100.00;101453.34;5073246;28;20450;-45
2023/06/14 00:12:46;;;;;;;28.05;7.78;;;;;;;20.15;100.00;101449.41;5091170;28;20482;-44
2023/06/14 00:15:11;;;;;;;18.52;7.07;;;;;;;20.12;100.00;101449.88;5073393;28;20032;-47
2023/06/14 00:17:38;;;;;;;19.75;7.18;;;;;;;20.12;100.00;101460.81;5083509;28;20077;-48
2023/06/14 00:20:07;;;;;;;24.00;7.35;;;;;;;20.10;100.00;101452.00;5070408;28;20025;-47
2023/06/14 00:22:33;;;;;;;17.38;7.22;;;;;;;20.05;100.00;101452.69;5082257;28;20112;-49
2023/06/14 00:24:58;;;;;;;22.17;7.15;;;;;;;19.97;100.00;101458.47;5090887;28;20060;-46
2023/06/14 00:27:24;;;;;;;16.20;6.93;;;;;;;19.98;100.00;101454.66;5081063;28;20043;-47
2023/06/14 00:29:50;;;;;;;21.42;7.15;;;;;;;19.95;100.00;101458.69;5069376;28;20461;-47
2023/06/14 00:32:15;;;;;;;17.67;7.65;;;;;;;19.90;100.00;101453.06;5082241;28;20481;-50
2023/06/14 00:34:40;;;;;;;22.83;7.30;;;;;;;19.87;100.00;101458.19;5089182;28;20024;-48
2023/06/14 00:37:06;;;;;;;16.77;7.68;;;;;;;19.85;100.00;101454.81;5088185;28;20073;-44
2023/06/14 00:39:31;;;;;;;23.13;8.48;;;;;;;19.78;100.00;101454.09;5070908;28;20025;-45
2023/06/14 00:41:57;;;;;;;21.95;7.70;;;;;;;19.72;100.00;101450.34;5071498;28;20364;-44
2023/06/14 00:44:23;;;;;;;16.02;7.25;;;;;;;19.70;100.00;101453.34;5081853;28;20035;-45
2023/06/14 00:46:49;;;;;;;16.80;7.88;;;;;;;19.62;100.00;101458.25;5087694;28;20113;-47
2023/06/14 00:49:16;;;;;;;21.00;7.97;;;;;;;19.62;100.00;101456.34;5078453;28;20123;-46
2023/06/14 00:51:42;;;;;;;19.73;7.93;;;;;;;19.58;100.00;101457.00;5079436;28;20390;-46
2023/06/14 00:54:07;;;;;;;25.75;7.50;;;;;;;19.52;100.00;101456.84;5071174;28;20165;-45
2023/06/14 00:56:33;;;;;;;16.70;7.57;;;;;;;19.51;100.00;101454.38;5070064;28;20147;-44
2023/06/14 00:58:58;;;;;;;25.95;7.65;;;;;;;19.50;100.00;101452.69;5086008;28;20028;-45
2023/06/14 01:01:24;;;;;;;21.58;8.05;;;;;;;19.45;100.00;101450.63;5088117;28;20048;-45
2023/06/14 01:03:51;;;;;;;25.38;7.80;;;;;;;19.40;100.00;101450.47;5070664;28;20024;-45
2023/06/14 01:06:32;;;;;;;22.88;7.80;;;;;;;19.39;100.00;101456.16;5074776;28;20024;-45
2023/06/14 01:09:06;;;;;;;27.55;7.85;;;;;;;19.38;100.00;101454.47;5080988;28;20032;-47
2023/06/14 01:11:36;;;;;;;20.55;7.93;;;;;;;19.31;100.00;101457.28;5068556;28;20079;-45
2023/06/14 01:14:03;;;;;;;17.27;6.97;;;;;;;19.27;100.00;101456.06;5069752;28;20032;-45
2023/06/14 01:16:29;;;;;;;24.92;7.57;;;;;;;19.25;100.00;101450.00;5083732;28;20044;-46
2023/06/14 01:18:56;;;;;;;14.05;7.45;;;;;;;19.20;100.00;101447.94;5081380;28;20027;-47
2023/06/14 01:21:28;;;;;;;27.03;7.37;;;;;;;19.20;100.00;101452.56;5089874;28;20165;-46
2023/06/14 01:23:54;;;;;;;22.17;8.02;;;;;;;19.18;100.00;101454.69;5090183;28;20113;-48
2023/06/14 01:26:20;;;;;;;20.08;7.00;;;;;;;19.15;100.00;101455.13;5075660;28;20036;-46
2023/06/14 01:28:48;;;;;;;21.45;7.45;;;;;;;19.14;100.00;101459.78;5052596;28;20489;-47
2023/06/14 01:31:18;;;;;;;22.80;7.20;;;;;;;19.04;100.00;101471.19;5085658;28;20024;-45
2023/06/14 01:33:43;;;;;;;22.55;7.30;;;;;;;19.05;99.72;101466.56;5082894;28;20055;-46
2023/06/14 01:36:10;;;;;;;21.65;6.70;;;;;;;19.03;99.84;101463.19;5088604;28;20040;-45
2023/06/14 01:38:36;;;;;;;20.20;7.15;;;;;;;18.96;100.00;101467.91;5086736;28;20028;-47
2023/06/14 01:41:02;;;;;;;23.80;7.20;;;;;;;18.97;100.00;101467.66;5068674;28;20024;-46
2023/06/14 01:43:28;;;;;;;23.25;7.80;;;;;;;18.95;99.99;101461.59;5083350;28;20466;-43
2023/06/14 01:45:55;;;;;;;23.67;7.05;;;;;;;18.91;99.91;101460.38;5088992;28;20489;-48
2023/06/14 01:48:22;;;;;;;20.10;7.18;;;;;;;18.85;99.51;101461.25;5079475;28;20064;-47
2023/06/14 01:50:49;;;;;;;18.53;7.13;;;;;;;18.80;99.82;101461.06;5077303;28;20154;-46
2023/06/14 01:53:15;;;;;;;25.83;7.95;;;;;;;18.76;99.70;101452.50;5087885;28;20414;-44
2023/06/14 01:55:43;;;;;;;18.10;6.93;;;;;;;18.70;99.46;101450.66;5085006;28;20135;-46
2023/06/14 01:58:08;;;;;;;21.02;6.93;;;;;;;18.67;99.53;101458.41;5075738;28;20039;-46
2023/06/14 02:00:34;;;;;;;26.50;7.25;;;;;;;18.64;99.52;101462.41;5088895;28;20398;-46
2023/06/14 02:03:01;;;;;;;37.55;7.15;;;;;;;18.62;99.30;101457.19;5078622;28;20020;-45
2023/06/14 02:05:27;;;;;;;25.02;7.35;;;;;;;18.61;98.43;101455.50;5068550;28;20391;-45
2023/06/14 02:07:55;;;;;;;25.05;6.55;;;;;;;18.58;98.60;101461.41;5069574;28;20094;-45
2023/06/14 02:10:21;;;;;;;24.13;7.18;;;;;;;18.52;98.45;101456.84;5068340;28;20035;-46
2023/06/14 02:12:46;;;;;;;16.05;5.85;;;;;;;18.53;98.36;101457.69;5068211;28;20032;-44
2023/06/14 02:15:16;;;;;;;16.48;6.30;;;;;;;18.53;97.70;101460.41;5069912;28;20036;-45
2023/06/14 02:17:50;;;;;;;15.43;6.43;;;;;;;18.52;97.68;101462.31;5068276;28;20020;-44
2023/06/14 02:20:16;;;;;;;17.80;7.05;;;;;;;18.47;97.94;101453.94;5069680;28;20024;-46
2023/06/14 02:22:42;;;;;;;20.92;7.38;;;;;;;18.46;97.88;101457.72;5080432;28;20024;-44
2023/06/14 02:25:08;;;;;;;18.10;6.57;;;;;;;18.42;97.72;101456.50;5086437;28;20080;-46
2023/06/14 02:27:33;;;;;;;20.38;6.55;;;;;;;18.39;97.56;101456.94;5076615;28;20064;-45
2023/06/14 02:30:00;;;;;;;24.50;6.97;;;;;;;18.38;97.25;101460.72;5069560;28;20036;-46
2023/06/14 02:32:27;;;;;;;18.83;6.70;;;;;;;18.37;97.21;101465.31;5057268;28;20032;-47
2023/06/14 02:34:53;;;;;;;21.08;7.28;;;;;;;18.34;97.09;101459.47;5075121;28;20107;-47
2023/06/14 02:37:18;;;;;;;24.70;7.20;;;;;;;18.25;97.24;101464.34;5073732;28;20075;-44
2023/06/14 02:39:43;;;;;;;13.90;6.25;;;;;;;18.23;97.78;101462.91;5076490;28;20047;-46
2023/06/14 02:42:10;;;;;;;22.75;7.25;;;;;;;18.28;97.44;101463.09;5084987;28;20491;-46
2023/06/14 02:44:35;;;;;;;25.70;6.95;;;;;;;18.18;97.63;101456.19;5080483;28;20052;-46
2023/06/14 02:47:01;;;;;;;29.63;7.47;;;;;;;18.18;97.84;101460.81;5085989;28;20067;-46
2023/06/14 02:49:26;;;;;;;20.45;6.68;;;;;;;18.15;97.47;101459.38;5074468;28;20036;-47
2023/06/14 02:51:51;;;;;;;19.40;6.78;;;;;;;18.09;97.81;101460.25;5086148;28;20040;-44
2023/06/14 02:54:17;;;;;;;14.95;7.00;;;;;;;18.10;97.60;101458.34;5085687;28;20068;-47
2023/06/14 02:56:43;;;;;;;22.20;7.43;;;;;;;18.08;97.57;101464.00;5076112;28;20531;-49
2023/06/14 02:59:09;;;;;;;21.42;7.60;;;;;;;18.03;97.94;101468.44;5072535;28;20028;-46
2023/06/14 03:01:38;;;;;;;21.02;6.20;;;;;;;18.01;97.92;101471.38;5073631;28;20161;-46
2023/06/14 03:04:04;;;;;;;15.05;6.47;;;;;;;17.99;98.00;101476.19;5071623;28;20021;-45
2023/06/14 03:06:30;;;;;;;33.50;7.68;;;;;;;17.91;97.67;101476.44;5072804;28;20027;-46
2023/06/14 03:08:59;;;;;;;18.55;6.78;;;;;;;17.92;97.83;101478.09;5071468;28;20028;-46
2023/06/14 03:11:25;;;;;;;21.27;6.78;;;;;;;17.92;97.78;101478.09;5073453;28;20028;-48
2023/06/14 03:13:51;;;;;;;25.25;7.03;;;;;;;17.89;97.51;101479.38;5091242;28;20038;-46
2023/06/14 03:16:21;;;;;;;12.00;6.38;;;;;;;17.86;97.46;101478.97;5092568;28;20016;-46
2023/06/14 03:18:55;;;;;;;19.83;6.45;;;;;;;17.84;97.23;101483.78;5079997;28;20029;-46
2023/06/14 03:21:21;;;;;;;38.17;7.35;;;;;;;17.80;97.25;101485.25;5080751;28;20039;-45
2023/06/14 03:23:47;;;;;;;16.23;7.18;;;;;;;17.76;96.92;101485.66;5080593;28;20024;-45
2023/06/14 03:26:13;;;;;;;25.35;6.63;;;;;;;17.77;97.32;101487.34;5088721;28;20035;-48
2023/06/14 03:28:40;;;;;;;17.58;6.70;;;;;;;17.76;97.19;101484.84;5089756;28;20115;-47
2023/06/14 03:31:05;;;;;;;17.52;7.28;;;;;;;17.77;97.14;101491.94;5095459;28;20354;-48
2023/06/14 03:33:30;;;;;;;17.92;6.63;;;;;;;17.72;97.32;101492.59;5079831;28;20041;-47
2023/06/14 03:35:57;;;;;;;23.85;6.63;;;;;;;17.69;97.34;101493.03;5077277;28;20506;-45
2023/06/14 03:38:22;;;;;;;20.27;6.53;;;;;;;17.70;97.54;101497.41;5073688;28;20040;-47
2023/06/14 03:40:48;;;;;;;17.52;6.45;;;;;;;17.67;97.46;101503.28;5071708;28;20384;-47
2023/06/14 03:43:13;;;;;;;14.65;6.35;;;;;;;17.70;97.06;101500.13;5080378;28;20467;-45
2023/06/14 03:45:38;;;;;;;25.30;6.07;;;;;;;17.64;96.97;101501.00;5071988;28;20027;-45
2023/06/14 03:48:06;;;;;;;14.35;6.00;;;;;;;17.63;97.04;101507.47;5074021;28;20032;-48
2023/06/14 03:50:32;;;;;;;19.73;6.07;;;;;;;17.60;96.75;101507.91;5072439;28;20490;-47
2023/06/14 03:52:58;;;;;;;19.25;6.18;;;;;;;17.60;96.83;101507.91;5080604;28;20024;-48
2023/06/14 03:55:25;;;;;;;17.83;6.68;;;;;;;17.61;97.15;101506.84;5080414;28;20037;-46
2023/06/14 03:57:50;;;;;;;22.03;5.80;;;;;;;17.57;96.72;101508.34;5077212;28;20024;-45
2023/06/14 04:00:16;;;;;;;17.65;6.18;;;;;;;17.59;96.91;101506.25;5087071;28;20059;-44
2023/06/14 04:02:44;;;;;;;22.40;6.65;;;;;;;17.63;96.25;101506.66;5089969;28;20036;-47
2023/06/14 04:05:09;;;;;;;18.85;6.15;;;;;;;17.60;96.25;101510.63;5076626;28;20415;-46
2023/06/14 04:07:39;;;;;;;48.70;7.30;;;;;;;17.60;96.07;101518.78;5082754;28;20028;-47
2023/06/14 04:10:06;;;;;;;20.60;6.28;;;;;;;17.61;96.34;101517.72;5073500;28;20067;-45
2023/06/14 04:12:32;;;;;;;17.30;6.23;;;;;;;17.63;95.79;101522.97;5064748;28;20025;-43
2023/06/14 04:14:57;;;;;;;12.50;6.13;;;;;;;17.56;95.34;101517.53;5088143;28;20658;-45
2023/06/14 04:17:22;;;;;;;16.27;6.05;;;;;;;17.56;95.46;101520.25;5076470;28;20495;-45
2023/06/14 04:19:48;;;;;;;18.45;6.20;;;;;;;17.62;97.19;101524.88;5077507;28;20090;-43
2023/06/14 04:22:13;;;;;;;11.30;5.88;;;;;;;17.59;96.20;101522.56;5053640;28;20455;-44
2023/06/14 04:24:38;;;;;;;22.10;6.07;;;;;;;17.68;95.30;101526.72;5084146;28;20036;-46
2023/06/14 04:27:04;;;;;;;23.73;6.28;;;;;;;17.70;95.29;101527.38;5090101;28;20038;-47
2023/06/14 04:29:31;;;;;;;20.27;6.28;;;;;;;17.72;95.65;101525.28;5069602;28;20025;-46
2023/06/14 04:32:01;;;;;;;28.20;5.93;;;;;;;17.75;94.76;101522.13;5078613;28;20039;-48
2023/06/14 04:34:29;;;;;;;18.63;5.68;;;;;;;17.75;95.56;101532.19;5077199;28;20393;-46
2023/06/14 04:36:55;;;;;;;19.92;6.10;;;;;;;17.81;95.26;101525.06;5078559;28;20031;-49
2023/06/14 04:39:21;;;;;;;24.63;6.13;;;;;;;17.83;95.22;101528.44;5076564;28;20067;-46
2023/06/14 04:41:47;;;;;;;18.08;5.60;;;;;;;17.77;94.36;101525.47;5084561;28;20071;-45
2023/06/14 04:44:12;;;;;;;20.88;5.75;;;;;;;17.83;94.59;101528.44;5074901;28;20028;-46
2023/06/14 04:46:43;;;;;;;20.45;5.47;;;;;;;17.85;94.94;101532.59;5071216;28;20082;-46
2023/06/14 04:49:14;;;;;;;16.38;5.65;;;;;;;17.93;94.20;101528.78;5077660;28;20386;-46
2023/06/14 04:51:40;;;;;;;20.60;5.85;;;;;;;17.91;93.71;101525.47;5074870;28;20425;-45
2023/06/14 04:54:09;;;;;;;23.20;5.97;;;;;;;17.91;94.16;101531.75;5070721;28;20089;-47
2023/06/14 04:56:37;;;;;;;17.30;5.57;;;;;;;18.01;93.89;101528.59;5069764;28;20036;-49
2023/06/14 04:59:04;;;;;;;18.45;5.78;;;;;;;17.99;93.84;101527.94;5070746;28;20208;-49
2023/06/14 05:01:30;;;;;;;15.93;5.85;;;;;;;18.03;92.96;101531.06;5070353;28;20047;-48
2023/06/14 05:03:55;;;;;;;15.13;5.35;;;;;;;18.07;93.17;101530.44;5052665;28;20025;-45
2023/06/14 05:06:22;;;;;;;15.10;6.03;;;;;;;18.11;92.54;101528.94;5070399;28;20094;-43
2023/06/14 05:08:47;;;;;;;14.52;5.57;;;;;;;18.17;92.90;101538.16;5070472;28;20040;-47
2023/06/14 05:11:13;;;;;;;14.85;5.45;;;;;;;18.21;92.82;101542.13;5072654;28;20108;-46
2023/06/14 05:13:39;;;;;;;15.68;5.40;;;;;;;18.23;92.23;101539.19;5077182;28;20092;-47
2023/06/14 05:16:06;;;;;;;17.08;5.88;;;;;;;18.27;92.82;101535.78;5076915;28;20032;-45
2023/06/14 05:18:33;;;;;;;16.73;5.38;;;;;;;18.33;93.05;101547.75;5084750;28;20438;-46
2023/06/14 05:20:59;;;;;;;16.95;5.85;;;;;;;18.35;92.36;101540.16;5072977;28;20036;-46
2023/06/14 05:23:25;;;;;;;17.63;5.82;;;;;;;18.35;92.79;101553.78;5081858;28;20370;-48
2023/06/14 05:25:50;;;;;;;16.23;5.25;;;;;;;18.35;93.27;101549.19;5072035;28;20514;-45
2023/06/14 05:28:17;;;;;;;21.73;5.93;;;;;;;18.34;93.09;101549.41;5075758;28;20538;-47
2023/06/14 05:30:44;;;;;;;17.67;5.73;;;;;;;18.36;93.05;101545.41;5068164;28;20032;-46
2023/06/14 05:33:09;;;;;;;23.83;5.78;;;;;;;18.41;93.19;101550.22;5077315;28;20043;-45
2023/06/14 05:35:35;;;;;;;21.60;6.07;;;;;;;18.42;92.65;101549.16;5079717;28;20335;-45
2023/06/14 05:38:00;;;;;;;12.98;6.45;;;;;;;18.43;92.89;101550.81;5084366;28;20430;-45
2023/06/14 05:40:26;;;;;;;13.15;5.93;;;;;;;18.45;92.61;101556.88;5082843;28;20538;-47
2023/06/14 05:42:51;;;;;;;18.67;6.00;;;;;;;18.46;92.12;101550.41;5089409;28;20052;-47
2023/06/14 05:45:17;;;;;;;30.88;7.28;;;;;;;18.53;92.12;101540.28;5076517;28;20032;-46
2023/06/14 05:47:42;;;;;;;27.40;6.00;;;;;;;18.58;92.92;101554.09;5071010;28;20494;-44
2023/06/14 05:50:08;;;;;;;14.85;5.88;;;;;;;18.65;92.13;101549.44;5071214;28;20029;-46
2023/06/14 05:52:34;;;;;;;18.98;5.88;;;;;;;18.80;91.85;101556.53;5085149;28;20030;-47
2023/06/14 05:54:59;;;;;;;17.70;5.95;;;;;;;18.82;91.68;101559.88;5074244;28;20037;-47
2023/06/14 05:57:25;;;;;;;18.23;5.95;;;;;;;18.86;90.89;101561.13;5069995;28;20362;-50
2023/06/14 05:59:51;;;;;;;24.65;6.38;;;;;;;18.85;91.63;101564.88;5076955;28;20122;-45
2023/06/14 06:02:16;;;;;;;21.17;6.53;;;;;;;18.94;92.09;101568.22;5077501;28;20064;-48
2023/06/14 06:04:41;;;;;;;29.30;6.85;;;;;;;19.05;90.93;101572.94;5068526;28;20099;-50
2023/06/14 06:07:07;;;;;;;22.20;5.80;;;;;;;19.03;91.90;101564.97;5071892;28;20509;-46
2023/06/14 06:09:33;;;;;;;20.75;6.25;;;;;;;19.14;92.57;101571.63;5088283;28;20028;-46
2023/06/14 06:11:58;;;;;;;21.20;7.10;;;;;;;19.29;91.74;101563.94;5088569;28;20107;-48
2023/06/14 06:14:24;;;;;;;21.92;6.22;;;;;;;19.36;90.48;101566.63;5070687;28;20020;-50
2023/06/14 06:16:50;;;;;;;23.88;6.30;;;;;;;19.41;90.70;101558.59;5073945;28;20016;-46
2023/06/14 06:19:15;;;;;;;19.33;6.50;;;;;;;19.50;90.25;101568.19;5069813;28;22016;-46
2023/06/14 06:21:41;;;;;;;17.45;6.38;;;;;;;19.59;90.48;101576.06;5078095;28;20364;-45
2023/06/14 06:24:06;;;;;;;20.15;6.43;;;;;;;19.66;89.36;101566.81;5073890;28;20353;-45
2023/06/14 06:26:33;;;;;;;17.60;5.97;;;;;;;19.86;88.25;101572.06;5072966;28;20058;-45
2023/06/14 06:28:59;;;;;;;18.48;6.70;;;;;;;19.93;86.80;101572.00;5085151;28;20028;-49
2023/06/14 06:31:25;;;;;;;15.65;6.28;;;;;;;20.00;85.54;101578.22;5088495;28;20028;-46
2023/06/14 06:33:53;;;;;;;21.40;6.43;;;;;;;20.09;85.46;101581.50;5089327;28;20426;-46
2023/06/14 06:36:21;;;;;;;20.13;6.13;;;;;;;20.07;83.61;101586.38;5080431;28;20048;-45
2023/06/14 06:38:47;;;;;;;19.00;5.97;;;;;;;20.06;84.57;101581.94;5085050;28;20549;-48
2023/06/14 06:41:12;;;;;;;17.98;6.03;;;;;;;20.16;85.52;101579.53;5094751;28;20032;-48
2023/06/14 06:43:38;;;;;;;15.88;6.13;;;;;;;20.34;84.40;101584.16;5094122;28;20032;-45
2023/06/14 06:46:03;;;;;;;15.95;6.00;;;;;;;20.41;83.82;101592.28;5068011;28;20032;-45
2023/06/14 06:48:30;;;;;;;16.65;6.82;;;;;;;20.52;82.43;101595.06;5085466;28;20030;-49
2023/06/14 06:50:55;;;;;;;12.70;5.90;;;;;;;20.56;82.30;101598.22;5092501;28;20160;-48
2023/06/14 06:53:20;;;;;;;23.63;7.30;;;;;;;20.55;81.87;101591.91;5086161;28;20128;-46
2023/06/14 06:55:46;;;;;;;21.88;6.88;;;;;;;20.57;81.73;101608.09;5074813;28;20034;-45
2023/06/14 06:58:12;;;;;;;19.13;5.72;;;;;;;20.80;82.12;101599.16;5088651;28;20040;-46
2023/06/14 07:00:37;;;;;;;18.48;6.43;;;;;;;21.16;80.15;101600.09;5086400;28;20367;-48
2023/06/14 07:03:03;;;;;;;17.63;6.03;;;;;;;21.90;76.62;101600.56;5086198;28;20085;-47
2023/06/14 07:05:29;;;;;;;12.50;5.57;;;;;;;22.51;73.46;101606.56;5091892;28;20024;-48
2023/06/14 07:07:55;;;;;;;20.60;6.30;;;;;;;23.06;71.01;101613.44;5081575;28;20467;-44
2023/06/14 07:10:20;;;;;;;24.52;6.32;;;;;;;24.06;68.39;101614.53;5087457;28;20174;-46
2023/06/14 07:12:45;;;;;;;29.20;6.20;;;;;;;24.75;64.08;101631.44;5090161;28;20419;-45
2023/06/14 07:15:11;;;;;;;20.63;6.63;;;;;;;25.04;61.46;101620.16;5090132;28;20478;-45
2023/06/14 07:17:38;;;;;;;23.83;6.85;;;;;;;25.55;59.43;101622.59;5077095;28;20539;-48
2023/06/14 07:20:13;;;;;;;14.20;5.93;;;;;;;25.67;58.48;101619.63;5066027;28;20036;-46
2023/06/14 07:22:43;;;;;;;21.50;6.72;;;;;;;26.40;56.04;101623.41;5078536;28;20031;-45
2023/06/14 07:25:09;;;;;;;22.55;7.30;;;;;;;26.56;54.55;101617.97;5091521;28;20037;-45
2023/06/14 07:27:34;;;;;;;14.88;6.70;;;;;;;27.30;53.16;101628.66;5075626;28;20032;-47
2023/06/14 07:30:00;;;;;;;23.48;6.22;;;;;;;28.20;49.19;101625.28;5081749;28;20056;-46
2023/06/14 07:32:25;;;;;;;17.73;7.13;;;;;;;28.16;46.83;101626.94;5089090;28;20112;-46
2023/06/14 07:34:50;;;;;;;18.58;6.57;;;;;;;27.97;46.91;101629.47;5080093;28;20032;-44
2023/06/14 07:37:16;;;;;;;26.08;6.97;;;;;;;28.11;46.31;101629.72;5073657;28;20123;-49
2023/06/14 07:39:41;;;;;;;19.25;6.55;;;;;;;28.21;47.37;101632.47;5053441;28;20119;-45
2023/06/14 07:42:07;;;;;;;16.40;7.07;;;;;;;28.75;46.11;101636.41;5092296;28;20030;-48
2023/06/14 07:44:32;;;;;;;18.30;7.22;;;;;;;28.38;45.48;101636.81;5073822;28;20051;-45
2023/06/14 07:47:00;;;;;;;27.13;6.63;;;;;;;28.14;46.11;101633.84;5058086;28;20379;-45
2023/06/14 07:49:26;;;;;;;18.27;7.50;;;;;;;27.93;44.72;101641.38;5084161;28;20036;-48
2023/06/14 07:51:53;;;;;;;21.70;7.65;;;;;;;28.06;44.13;101646.31;5091582;28;20440;-45
2023/06/14 07:54:19;;;;;;;23.52;6.97;;;;;;;28.26;44.52;101641.88;5081494;28;20634;-46
2023/06/14 07:56:44;;;;;;;24.92;7.57;;;;;;;28.64;43.23;101641.16;5073094;28;20237;-44
2023/06/14 07:59:10;;;;;;;27.73;7.55;;;;;;;28.93;42.96;101640.47;5060462;28;20037;-47
2023/06/14 08:01:35;;;;;;;23.15;7.20;;;;;;;29.16;42.88;101641.72;5088004;28;20028;-45
2023/06/14 08:04:01;;;;;;;28.90;8.30;;;;;;;29.15;41.19;101644.78;5089581;28;20103;-48
2023/06/14 08:06:27;;;;;;;24.27;8.25;;;;;;;28.83;42.37;101649.69;5083908;28;20355;-46
2023/06/14 08:08:52;;;;;;;23.27;7.93;;;;;;;28.78;42.21;101646.09;5076100;28;20028;-47
2023/06/14 08:11:18;;;;;;;22.02;8.02;;;;;;;28.55;42.95;101656.72;5082900;28;20065;-47
2023/06/14 08:13:43;;;;;;;23.10;7.65;;;;;;;28.37;42.90;101649.84;5086901;28;20028;-49
2023/06/14 08:16:08;;;;;;;28.80;8.65;;;;;;;28.45;43.25;101649.28;5077796;28;20029;-44
2023/06/14 08:18:34;;;;;;;18.88;7.82;;;;;;;28.36;43.53;101648.19;5079430;28;20111;-48
2023/06/14 08:20:59;;;;;;;19.98;7.35;;;;;;;28.82;43.43;101652.72;5070593;28;20105;-47
2023/06/14 08:23:24;;;;;;;25.85;7.93;;;;;;;29.06;42.29;101650.94;5072026;28;20089;-46
2023/06/14 08:25:50;;;;;;;18.92;7.72;;;;;;;29.26;42.20;101651.94;5076655;28;20248;-46
2023/06/14 08:28:15;;;;;;;19.33;8.45;;;;;;;29.61;41.59;101647.22;5076436;28;20039;-46
2023/06/14 08:30:42;;;;;;;26.40;7.68;;;;;;;29.78;40.91;101658.75;5085761;28;20028;-47
2023/06/14 08:33:07;;;;;;;22.42;7.25;;;;;;;29.81;40.66;101649.00;5091377;28;20028;-47
2023/06/14 08:35:33;;;;;;;21.58;8.75;;;;;;;29.47;40.59;101649.81;5083935;28;20046;-45
2023/06/14 08:37:58;;;;;;;17.10;7.63;;;;;;;30.06;40.68;101645.94;5079615;28;20019;-46
2023/06/14 08:40:24;;;;;;;25.87;8.03;;;;;;;30.07;40.28;101650.41;5089643;28;20028;-46
2023/06/14 08:42:55;;;;;;;20.38;8.35;;;;;;;30.10;39.60;101651.75;5089679;28;20028;-48
2023/06/14 08:45:21;;;;;;;20.77;8.20;;;;;;;29.89;39.96;101654.75;5091388;28;20128;-46
2023/06/14 08:47:51;;;;;;;23.63;7.22;;;;;;;30.28;39.18;101639.94;5081943;28;20319;-49
2023/06/14 08:50:26;;;;;;;15.75;7.85;;;;;;;30.43;38.63;101660.28;5075269;28;20028;-45
2023/06/14 08:52:57;;;;;;;16.35;7.55;;;;;;;30.51;37.75;101651.28;5069897;28;20034;-45
2023/06/14 08:55:26;;;;;;;23.50;7.88;;;;;;;30.45;38.64;101655.28;5053614;28;20031;-45
2023/06/14 08:57:53;;;;;;;21.98;7.50;;;;;;;30.50;38.44;101655.22;5077889;28;20048;-46
2023/06/14 09:00:20;;;;;;;;;;;;;;;30.40;38.91;101654.19;5090791;28;20055;-48
2023/06/14 09:02:47;;;;;;;30.50;8.77;;;;;;;30.38;38.80;101648.09;5089732;28;19916;-50
2023/06/14 09:05:13;;;;;;;26.77;8.68;;;;;;;30.23;39.30;101644.66;5089588;28;20028;-47
2023/06/14 09:07:41;;;;;;;24.05;7.85;;;;;;;30.09;38.16;101653.69;5074268;28;20507;-46
2023/06/14 09:10:08;;;;;;;20.65;7.63;;;;;;;30.20;37.48;101659.94;5088407;28;20023;-47
2023/06/14 09:12:34;;;;;;;;;;;;;;;29.98;39.10;101652.16;5073241;28;20048;-45
2023/06/14 09:14:59;;;;;;;18.97;6.63;;;;;;;30.33;35.88;101653.75;5087419;28;19912;-47
2023/06/14 09:17:25;;;;;;;23.48;6.90;;;;;;;29.89;34.87;101656.69;5085237;28;20033;-46
2023/06/14 09:19:50;;;;;;;21.40;6.63;;;;;;;30.12;34.91;101661.44;5070784;28;20423;-46
2023/06/14 09:22:16;;;;;;;27.45;7.53;;;;;;;30.22;34.01;101651.34;5089715;28;20339;-45
2023/06/14 09:24:42;;;;;;;23.97;8.20;;;;;;;30.04;34.70;101647.38;5087260;28;20066;-46
2023/06/14 09:27:08;;;;;;;18.65;7.10;;;;;;;30.18;35.08;101665.81;5090239;28;20442;-47
2023/06/14 09:29:33;;;;;;;27.02;7.10;;;;;;;30.47;34.92;101664.97;5076076;28;20356;-46
2023/06/14 09:31:58;;;;;;;31.20;7.53;;;;;;;30.66;33.96;101661.41;5069147;28;20098;-44
2023/06/14 09:34:24;;;;;;;23.97;7.43;;;;;;;31.04;31.82;101667.81;5081667;28;20051;-46
2023/06/14 09:36:50;;;;;;;17.37;6.57;;;;;;;30.94;32.13;101659.63;5085125;28;20028;-43
2023/06/14 09:39:17;;;;;;;24.25;7.00;;;;;;;31.14;32.13;101670.47;5087120;28;20122;-46
2023/06/14 09:41:43;;;;;;;22.92;7.18;;;;;;;31.02;31.71;101679.25;5090040;28;20193;-46
2023/06/14 09:44:11;;;;;;;19.40;6.63;;;;;;;31.03;32.43;101667.00;5082656;28;20116;-47
2023/06/14 09:46:37;;;;;;;17.00;6.47;;;;;;;31.36;32.73;101666.22;5080801;28;20042;-48
2023/06/14 09:49:03;;;;;;;20.80;6.70;;;;;;;31.37;32.04;101682.66;5085256;28;20107;-46
2023/06/14 09:51:32;;;;;;;14.43;6.68;;;;;;;31.31;31.82;101677.44;5079763;28;20116;-45
2023/06/14 09:54:06;;;;;;;27.38;6.75;;;;;;;31.21;31.78;101668.13;5071522;28;20029;-44
2023/06/14 09:56:35;;;;;;;18.95;6.65;;;;;;;30.94;31.13;101670.75;5074341;28;20039;-45
2023/06/14 09:59:04;;;;;;;18.70;6.80;;;;;;;31.11;31.76;101673.03;5079088;28;20159;-48
2023/06/14 10:01:31;;;;;;;27.02;7.03;;;;;;;31.18;31.01;101668.75;5060976;28;20079;-46
2023/06/14 10:04:03;;;;;;;24.30;7.38;;;;;;;31.22;31.33;101675.34;5081311;28;20328;-47
2023/06/14 10:06:29;;;;;;;26.73;6.85;;;;;;;31.37;31.21;101676.25;5077513;28;20533;-48
2023/06/14 10:08:59;;;;;;;20.27;6.15;;;;;;;31.77;30.09;101674.75;5083271;28;20035;-44
2023/06/14 10:11:29;;;;;;;26.83;7.13;;;;;;;31.56;30.86;101674.28;5072437;28;20033;-50
2023/06/14 10:13:58;;;;;;;17.30;6.50;;;;;;;31.21;29.67;101668.13;5088073;28;20027;-46
2023/06/14 10:16:42;;;;;;;13.45;5.95;;;;;;;31.48;29.70;101666.63;5089895;28;20040;-46
2023/06/14 10:19:16;;;;;;;18.67;6.10;;;;;;;31.55;29.64;101661.50;5093658;28;20042;-48
2023/06/14 10:22:04;;;;;;;12.70;5.82;;;;;;;31.05;29.45;101670.31;5092978;28;20028;-46
2023/06/14 10:24:35;;;;;;;17.80;5.88;;;;;;;31.17;29.42;101655.13;5093598;28;20039;-47
2023/06/14 10:27:00;;;;;;;16.65;5.88;;;;;;;31.37;29.90;101665.13;5089157;28;20028;-47
2023/06/14 10:29:31;;;;;;;14.07;5.60;;;;;;;31.46;27.90;101663.31;5084517;28;20017;-46
2023/06/14 10:31:59;;;;;;;22.75;5.30;;;;;;;30.89;28.37;101665.28;5073217;28;20532;-49
2023/06/14 10:34:25;;;;;;;12.68;5.70;;;;;;;30.98;27.86;101671.81;5078092;28;20033;-49
2023/06/14 10:37:06;;;;;;;15.82;6.07;;;;;;;30.81;28.78;101670.38;5085186;28;20040;-48
2023/06/14 10:39:32;;;;;;;15.93;5.82;;;;;;;30.95;28.73;101662.13;5092011;28;20466;-45
2023/06/14 10:42:02;;;;;;;16.15;5.45;;;;;;;31.07;29.11;101667.25;5081829;28;20048;-48
2023/06/14 10:44:31;;;;;;;14.10;5.10;;;;;;;31.24;28.26;101661.16;5072176;28;20059;-50
2023/06/14 10:46:59;;;;;;;14.68;5.43;;;;;;;31.11;29.01;101662.72;5072098;28;20032;-48
2023/06/14 10:49:42;;;;;;;21.17;5.82;;;;;;;31.42;28.75;101665.88;5113576;28;20035;-46
2023/06/14 10:52:31;;;;;;;25.73;5.80;;;;;;;31.99;28.80;101664.94;5092776;28;20050;-48
2023/06/14 10:55:05;;;;;;;;;;;;;;;32.23;26.58;101664.75;5079372;28;20040;-45
2023/06/14 10:57:32;;;;;;;10.05;5.15;;;;;;;31.78;26.66;101661.66;5059153;28;19912;-43
2023/06/14 10:59:59;;;;;;;11.18;5.20;;;;;;;31.88;26.71;101670.66;5093659;28;20394;-47
2023/06/14 11:03:01;;;;;;;14.55;4.50;;;;;;;31.57;28.01;101669.53;5092125;28;20085;-46
2023/06/14 11:05:28;;;;;;;13.00;5.07;;;;;;;30.27;28.89;101654.91;5092914;28;20670;-45
2023/06/14 11:08:18;;;;;;;17.13;4.88;;;;;;;31.20;28.51;101657.31;5091451;28;20059;-47
2023/06/14 11:10:45;;;;;;;22.35;4.97;;;;;;;31.89;27.61;101643.66;5090221;28;20020;-48
2023/06/14 11:13:11;;;;;;;15.77;4.40;;;;;;;31.05;26.92;101652.81;5088578;28;20032;-48
2023/06/14 11:15:37;;;;;;;16.30;5.17;;;;;;;31.34;27.17;101655.44;5088923;28;20047;-48